Time;durP1;ratioP1;P1;durP2;ratioP2;P2;SDS_P1;SDS_P2;PMS_P1;PMS_P2;Temp;Humidity;BMP_temperature;BMP_pressure;BME280_temperature;BME280_humidity;BME280_pressure;Samples;Min_cycle;Max_cycle;Signal;HPM_P1;HPM_P2
2023/03/10 00:01:26;;;;;;;7.78;2.63;;;7.70;99.90;;;;;;5019024;28;20057;-71
2023/03/10 00:03:53;;;;;;;7.47;2.88;;;7.90;99.90;;;;;;5025973;28;20515;-70
2023/03/10 00:06:23;;;;;;;7.65;2.65;;;8.20;99.90;;;;;;5023876;28;20037;-70
2023/03/10 00:08:49;;;;;;;8.40;3.28;;;8.30;99.90;;;;;;5009108;28;20735;-70
2023/03/10 00:11:15;;;;;;;8.93;3.00;;;8.30;99.90;;;;;;5023085;28;20053;-71
2023/03/10 00:13:41;;;;;;;9.82;2.80;;;8.10;99.90;;;;;;5029020;28;20084;-70
2023/03/10 00:16:08;;;;;;;8.20;2.83;;;8.10;99.90;;;;;;5013463;28;20057;-70
2023/03/10 00:18:34;;;;;;;11.38;2.67;;;8.20;99.90;;;;;;5008355;28;20053;-70
2023/03/10 00:20:59;;;;;;;5.90;2.53;;;8.30;99.90;;;;;;5021990;28;20033;-71
2023/03/10 00:23:25;;;;;;;8.95;2.72;;;8.20;99.90;;;;;;5002730;28;20037;-70
2023/03/10 00:25:58;;;;;;;8.45;2.55;;;8.00;99.90;;;;;;5021236;28;20030;-70
2023/03/10 00:28:25;;;;;;;11.88;2.60;;;8.00;99.90;;;;;;5029647;28;20470;-71
2023/03/10 00:31:02;;;;;;;8.02;2.65;;;8.00;99.90;;;;;;5013203;28;20022;-71
2023/03/10 00:33:30;;;;;;;8.82;3.33;;;8.00;99.90;;;;;;5010699;28;20390;-70
2023/03/10 00:36:11;;;;;;;6.55;2.88;;;8.00;99.90;;;;;;5021686;28;20470;-71
2023/03/10 00:38:37;;;;;;;9.65;2.50;;;8.10;99.90;;;;;;5007916;28;20029;-71
2023/03/10 00:41:08;;;;;;;7.57;2.38;;;8.00;99.90;;;;;;5023669;28;20040;-70
2023/03/10 00:43:35;;;;;;;9.13;2.80;;;7.90;99.90;;;;;;5023263;28;20367;-69
2023/03/10 00:46:01;;;;;;;7.40;3.17;;;7.90;99.90;;;;;;5009250;28;20478;-70
2023/03/10 00:48:27;;;;;;;8.23;2.67;;;7.90;99.90;;;;;;5009852;28;20056;-70
2023/03/10 00:50:53;;;;;;;15.05;2.63;;;8.00;99.90;;;;;;5004018;28;20481;-71
2023/03/10 00:53:19;;;;;;;8.63;2.40;;;8.00;99.90;;;;;;5007072;28;20053;-71
2023/03/10 00:55:55;;;;;;;5.63;2.53;;;8.00;99.90;;;;;;5025438;28;20037;-71
2023/03/10 00:58:21;;;;;;;10.45;2.60;;;7.90;99.90;;;;;;5028030;28;20524;-71
2023/03/10 01:00:46;;;;;;;7.40;2.60;;;8.00;99.90;;;;;;5021794;28;20037;-70
2023/03/10 01:03:12;;;;;;;10.45;2.83;;;7.90;99.90;;;;;;4995972;28;20025;-71
2023/03/10 01:05:38;;;;;;;5.15;2.25;;;8.00;99.90;;;;;;5007904;28;20481;-69
2023/03/10 01:08:04;;;;;;;8.23;2.20;;;8.00;99.90;;;;;;5007143;28;20045;-71
2023/03/10 01:10:30;;;;;;;7.18;2.42;;;8.00;99.90;;;;;;5018773;28;20146;-70
2023/03/10 01:12:55;;;;;;;9.18;2.58;;;8.00;99.90;;;;;;5025051;28;20038;-71
2023/03/10 01:15:21;;;;;;;8.90;2.58;;;7.80;99.90;;;;;;5016867;28;20037;-71
2023/03/10 01:17:47;;;;;;;7.60;2.75;;;7.80;99.90;;;;;;5004719;28;20564;-71
2023/03/10 01:20:14;;;;;;;11.82;2.67;;;7.70;99.90;;;;;;5021862;28;20033;-70
2023/03/10 01:22:40;;;;;;;8.13;2.70;;;7.80;99.90;;;;;;5028173;28;20079;-71
2023/03/10 01:25:06;;;;;;;7.78;2.90;;;7.60;99.90;;;;;;5015355;28;20033;-71
2023/03/10 01:27:31;;;;;;;11.40;2.85;;;7.60;99.90;;;;;;5013017;28;20049;-71
2023/03/10 01:29:57;;;;;;;11.55;2.85;;;7.60;99.90;;;;;;5023919;28;20712;-70
2023/03/10 01:32:23;;;;;;;5.68;2.55;;;7.50;99.90;;;;;;4991091;28;20038;-71
2023/03/10 01:34:48;;;;;;;5.95;2.42;;;7.50;99.90;;;;;;5009923;28;20111;-70
2023/03/10 01:37:14;;;;;;;7.65;2.30;;;7.50;99.90;;;;;;5009720;28;20077;-70
2023/03/10 01:39:39;;;;;;;7.00;2.40;;;7.50;99.90;;;;;;5024468;28;20599;-71
2023/03/10 01:42:05;;;;;;;8.73;2.33;;;7.60;99.90;;;;;;5007684;28;20061;-70
2023/03/10 01:44:31;;;;;;;7.18;2.30;;;7.60;99.90;;;;;;5010880;28;20026;-70
2023/03/10 01:46:57;;;;;;;5.55;2.50;;;7.50;99.90;;;;;;5007423;28;20634;-71
2023/03/10 01:49:43;;;;;;;8.18;2.55;;;7.50;99.90;;;;;;5008168;28;20410;-70
2023/03/10 01:52:19;;;;;;;11.32;2.53;;;7.50;99.90;;;;;;5005823;28;20053;-68
2023/03/10 01:55:20;;;;;;;5.05;2.20;;;7.40;99.90;;;;;;5028062;28;20025;-70
2023/03/10 01:57:50;;;;;;;8.50;2.33;;;7.50;99.90;;;;;;5020970;28;20485;-70
2023/03/10 02:00:17;;;;;;;6.90;2.72;;;7.50;99.90;;;;;;5007661;28;20033;-71
2023/03/10 02:03:08;;;;;;;5.68;2.10;;;7.50;99.90;;;;;;5006784;28;20121;-71
2023/03/10 02:05:44;;;;;;;9.68;2.47;;;7.40;99.90;;;;;;5005985;28;20092;-70
2023/03/10 02:08:13;;;;;;;6.60;2.47;;;7.40;99.90;;;;;;5017549;28;20069;-71
2023/03/10 02:10:39;;;;;;;7.55;2.67;;;7.50;99.90;;;;;;4993881;28;20120;-69
2023/03/10 02:13:05;;;;;;;7.57;2.83;;;7.30;99.90;;;;;;5018734;28;20129;-70
2023/03/10 02:15:32;;;;;;;10.32;2.78;;;7.20;99.90;;;;;;5009302;28;20125;-71
2023/03/10 02:17:59;;;;;;;8.00;2.97;;;7.20;99.90;;;;;;5010663;28;20117;-70
2023/03/10 02:20:47;;;;;;;9.70;2.97;;;7.20;99.90;;;;;;5012199;28;20104;-70
2023/03/10 02:23:22;;;;;;;9.40;2.63;;;7.10;99.90;;;;;;5005124;28;20037;-70
2023/03/10 02:25:53;;;;;;;6.03;2.08;;;7.20;99.90;;;;;;5014467;28;20030;-70
2023/03/10 02:28:18;;;;;;;6.68;2.25;;;7.40;99.90;;;;;;5013975;28;20022;-70
2023/03/10 02:30:47;;;;;;;6.13;2.13;;;7.80;99.90;;;;;;5008854;28;20413;-70
2023/03/10 02:33:17;;;;;;;5.75;2.00;;;8.10;99.90;;;;;;5018555;28;20034;-71
2023/03/10 02:35:43;;;;;;;4.38;1.25;;;8.70;99.90;;;;;;5012556;28;20370;-71
2023/03/10 02:38:09;;;;;;;5.88;1.55;;;9.00;99.90;;;;;;5031943;28;20043;-71
2023/03/10 02:40:50;;;;;;;6.70;1.30;;;9.50;99.90;;;;;;5027199;28;20026;-71
2023/03/10 02:43:17;;;;;;;3.50;1.52;;;9.90;99.90;;;;;;5026034;28;20045;-71
2023/03/10 02:45:45;;;;;;;4.95;1.08;;;10.00;99.90;;;;;;5014426;28;20077;-70
2023/03/10 02:48:14;;;;;;;9.93;1.45;;;10.00;99.90;;;;;;5011433;28;20451;-71
2023/03/10 02:50:42;;;;;;;2.88;1.05;;;10.20;99.90;;;;;;5013072;28;20037;-69
2023/03/10 02:53:18;;;;;;;6.07;1.25;;;10.00;99.90;;;;;;5014505;28;20038;-71
2023/03/10 02:55:44;;;;;;;6.05;1.10;;;10.00;99.90;;;;;;5020711;28;20022;-70
2023/03/10 02:58:10;;;;;;;6.57;1.52;;;9.80;99.90;;;;;;5028605;28;20673;-70
2023/03/10 03:00:37;;;;;;;3.72;1.00;;;9.60;99.90;;;;;;5029480;28;20053;-71
2023/03/10 03:03:04;;;;;;;5.25;1.25;;;9.60;99.90;;;;;;5028119;28;20037;-71
2023/03/10 03:05:29;;;;;;;8.77;1.60;;;9.70;99.90;;;;;;5031181;28;20025;-70
2023/03/10 03:07:55;;;;;;;8.52;1.58;;;9.50;99.90;;;;;;5025315;28;20064;-70
2023/03/10 03:10:21;;;;;;;5.15;1.13;;;9.50;99.90;;;;;;5026337;28;20088;-71
2023/03/10 03:12:49;;;;;;;2.78;1.00;;;9.40;99.90;;;;;;5014255;28;20037;-71
2023/03/10 03:15:15;;;;;;;3.28;0.63;;;9.30;99.90;;;;;;4998394;28;20061;-71
2023/03/10 03:17:41;;;;;;;1.58;0.65;;;9.30;99.90;;;;;;5010940;28;20041;-68
2023/03/10 03:20:13;;;;;;;5.53;0.50;;;9.50;99.90;;;;;;5011538;28;20429;-70
2023/03/10 03:22:43;;;;;;;1.30;0.52;;;9.40;99.90;;;;;;5010996;28;20113;-71
2023/03/10 03:25:11;;;;;;;2.00;0.35;;;9.20;99.90;;;;;;5009143;28;20029;-71
2023/03/10 03:27:37;;;;;;;0.80;0.30;;;9.20;99.90;;;;;;5010890;28;20029;-71
2023/03/10 03:30:05;;;;;;;2.25;0.20;;;9.30;99.90;;;;;;4996549;28;20031;-70
2023/03/10 03:32:30;;;;;;;1.50;0.30;;;9.30;99.90;;;;;;5010255;28;20044;-70
2023/03/10 03:34:57;;;;;;;0.90;0.28;;;9.40;99.90;;;;;;5009883;28;20378;-70
2023/03/10 03:37:23;;;;;;;0.70;0.30;;;9.50;99.90;;;;;;5010849;28;20409;-70
2023/03/10 03:39:48;;;;;;;2.10;0.45;;;9.30;99.90;;;;;;5009419;28;20030;-71
2023/03/10 03:42:14;;;;;;;0.95;0.20;;;9.50;99.90;;;;;;5015776;28;20065;-70
2023/03/10 03:44:40;;;;;;;1.25;0.28;;;9.50;99.90;;;;;;5030497;28;20060;-70
2023/03/10 03:47:07;;;;;;;0.90;0.28;;;9.50;99.90;;;;;;5029609;28;20373;-70
2023/03/10 03:49:34;;;;;;;3.25;0.50;;;9.40;99.90;;;;;;5011926;28;20483;-71
2023/03/10 03:52:00;;;;;;;1.00;0.32;;;9.40;99.90;;;;;;5029446;28;20045;-70
2023/03/10 03:54:25;;;;;;;1.02;0.30;;;9.30;99.90;;;;;;5026158;28;20127;-70
2023/03/10 03:56:51;;;;;;;0.70;0.20;;;9.40;99.90;;;;;;5024658;28;20025;-70
2023/03/10 03:59:16;;;;;;;0.75;0.35;;;9.30;99.90;;;;;;5001426;28;20104;-70
2023/03/10 04:01:42;;;;;;;2.63;0.40;;;9.30;99.90;;;;;;4989251;28;20394;-68
2023/03/10 04:04:08;;;;;;;1.95;0.30;;;9.30;99.90;;;;;;5011622;28;20053;-71
2023/03/10 04:06:33;;;;;;;1.67;0.38;;;9.40;99.90;;;;;;5009940;28;20034;-70
2023/03/10 04:08:59;;;;;;;3.50;0.30;;;9.40;99.90;;;;;;5008792;28;20038;-71
2023/03/10 04:11:25;;;;;;;2.95;0.20;;;9.50;99.90;;;;;;5010197;28;20030;-71
2023/03/10 04:13:50;;;;;;;1.48;0.35;;;9.40;99.90;;;;;;5008225;28;20033;-68
2023/03/10 04:16:16;;;;;;;0.40;0.10;;;9.50;99.90;;;;;;5013617;28;20036;-69
2023/03/10 04:18:42;;;;;;;0.70;0.10;;;9.50;99.90;;;;;;5008433;28;20555;-68
2023/03/10 04:21:07;;;;;;;1.27;0.30;;;9.60;99.90;;;;;;5008998;28;20038;-69
2023/03/10 04:23:33;;;;;;;3.53;0.20;;;9.40;99.90;;;;;;5009615;28;20025;-68
2023/03/10 04:25:58;;;;;;;3.30;0.20;;;9.50;99.90;;;;;;4989767;28;20061;-68
2023/03/10 04:28:24;;;;;;;0.40;0.10;;;9.50;99.90;;;;;;5008898;28;20029;-68
2023/03/10 04:30:50;;;;;;;1.02;0.20;;;9.40;99.90;;;;;;5009172;28;20065;-68
2023/03/10 04:33:16;;;;;;;0.30;0.08;;;9.40;99.90;;;;;;5009665;28;20038;-69
2023/03/10 04:35:42;;;;;;;0.25;0.15;;;9.50;99.90;;;;;;4988362;28;20061;-68
2023/03/10 04:38:09;;;;;;;2.00;0.10;;;9.50;99.90;;;;;;5007348;28;20034;-69
2023/03/10 04:40:35;;;;;;;2.40;0.40;;;9.60;99.90;;;;;;5009400;28;20394;-69
2023/03/10 04:43:01;;;;;;;0.43;0.15;;;9.40;99.90;;;;;;5010858;28;20462;-69
2023/03/10 04:45:26;;;;;;;0.43;0.20;;;9.30;99.90;;;;;;4991961;28;20060;-69
2023/03/10 04:47:52;;;;;;;1.17;0.20;;;9.20;99.90;;;;;;4990034;28;20497;-69
2023/03/10 04:50:17;;;;;;;0.20;0.10;;;9.10;99.90;;;;;;5011432;28;20051;-69
2023/03/10 04:52:44;;;;;;;1.73;0.20;;;9.00;99.90;;;;;;5016859;28;20034;-69
2023/03/10 04:55:11;;;;;;;3.17;0.13;;;8.90;99.90;;;;;;5005833;28;20634;-69
2023/03/10 04:57:36;;;;;;;0.82;0.20;;;8.90;99.90;;;;;;4996702;28;20037;-70
2023/03/10 05:00:06;;;;;;;0.80;0.20;;;8.90;99.90;;;;;;5010697;28;20026;-71
2023/03/10 05:02:32;;;;;;;1.65;0.25;;;8.90;99.90;;;;;;5008598;28;20501;-72
2023/03/10 05:05:00;;;;;;;0.80;0.20;;;8.90;99.90;;;;;;5008223;28;20445;-71
2023/03/10 05:07:26;;;;;;;2.47;0.32;;;9.00;99.90;;;;;;5008963;28;20087;-70
2023/03/10 05:09:52;;;;;;;0.38;0.17;;;8.90;99.90;;;;;;5007377;28;20044;-69
2023/03/10 05:12:18;;;;;;;1.65;0.40;;;8.90;99.90;;;;;;4993299;28;20034;-70
2023/03/10 05:14:43;;;;;;;1.95;0.50;;;8.90;99.90;;;;;;5008463;28;20030;-70
2023/03/10 05:17:10;;;;;;;3.30;0.70;;;9.00;99.90;;;;;;5006413;28;20113;-70
2023/03/10 05:19:36;;;;;;;4.53;0.30;;;9.00;99.90;;;;;;5008687;28;20079;-71
2023/03/10 05:22:03;;;;;;;1.58;0.47;;;9.00;99.90;;;;;;5008289;28;20069;-69
2023/03/10 05:24:29;;;;;;;2.80;0.40;;;9.10;99.90;;;;;;5009258;28;20050;-71
2023/03/10 05:26:55;;;;;;;1.02;0.20;;;9.00;99.90;;;;;;5006454;28;20077;-70
2023/03/10 05:29:20;;;;;;;1.05;0.30;;;9.00;99.90;;;;;;4990665;28;20057;-71
2023/03/10 05:31:46;;;;;;;1.67;0.40;;;9.10;99.90;;;;;;5012112;28;20068;-71
2023/03/10 05:34:15;;;;;;;1.40;0.43;;;9.10;99.90;;;;;;5027585;28;20497;-70
2023/03/10 05:36:41;;;;;;;0.63;0.30;;;9.20;99.90;;;;;;5028521;28;20477;-70
2023/03/10 05:39:08;;;;;;;1.95;0.43;;;9.30;99.90;;;;;;5024502;28;20055;-71
2023/03/10 05:41:35;;;;;;;1.55;0.40;;;9.40;99.90;;;;;;5008298;28;20030;-71
2023/03/10 05:44:01;;;;;;;1.25;0.47;;;9.30;99.90;;;;;;5008203;28;20030;-70
2023/03/10 05:46:27;;;;;;;0.88;0.40;;;9.30;99.90;;;;;;4989608;28;20529;-70
2023/03/10 05:48:53;;;;;;;1.23;0.40;;;9.10;99.90;;;;;;5009863;28;20050;-69
2023/03/10 05:51:18;;;;;;;2.40;0.70;;;9.00;99.90;;;;;;5027506;28;20045;-70
2023/03/10 05:53:44;;;;;;;1.45;0.75;;;9.10;99.90;;;;;;5021767;28;20034;-68
2023/03/10 05:56:16;;;;;;;1.17;0.30;;;9.10;99.90;;;;;;5011444;28;20057;-70
2023/03/10 05:58:42;;;;;;;1.45;0.52;;;9.20;99.90;;;;;;5012226;28;20076;-68
2023/03/10 06:01:08;;;;;;;1.10;0.40;;;9.10;99.90;;;;;;5013013;28;20480;-73
2023/03/10 06:03:34;;;;;;;3.03;0.20;;;9.20;99.90;;;;;;5011535;28;20041;-71
2023/03/10 06:06:00;;;;;;;2.42;0.30;;;9.20;99.90;;;;;;5011967;28;20478;-71
2023/03/10 06:08:29;;;;;;;1.08;0.30;;;9.10;99.90;;;;;;5011884;28;20037;-71
2023/03/10 06:10:56;;;;;;;1.08;0.32;;;9.20;99.90;;;;;;5029675;28;20049;-72
2023/03/10 06:13:22;;;;;;;1.20;0.20;;;9.30;99.90;;;;;;5031865;28;20451;-72
2023/03/10 06:15:52;;;;;;;1.40;0.30;;;9.20;99.90;;;;;;5016121;28;20022;-71
2023/03/10 06:18:18;;;;;;;2.05;0.38;;;9.40;99.90;;;;;;5011600;28;20068;-71
2023/03/10 06:20:44;;;;;;;1.13;0.30;;;9.40;99.90;;;;;;5009244;28;20085;-70
2023/03/10 06:23:10;;;;;;;3.28;0.40;;;9.30;99.90;;;;;;5011767;28;20038;-71
2023/03/10 06:25:36;;;;;;;3.08;0.40;;;9.30;99.90;;;;;;5012153;28;20030;-71
2023/03/10 06:28:02;;;;;;;1.45;0.30;;;9.40;99.90;;;;;;5010396;28;20209;-71
2023/03/10 06:30:28;;;;;;;3.45;0.40;;;9.50;99.90;;;;;;5010553;28;20034;-71
2023/03/10 06:32:53;;;;;;;3.03;0.30;;;9.40;99.90;;;;;;4992633;28;20438;-68
2023/03/10 06:35:19;;;;;;;2.47;0.30;;;9.50;99.90;;;;;;5010865;28;20030;-73
2023/03/10 06:37:45;;;;;;;2.33;0.30;;;9.30;99.90;;;;;;5009668;28;20038;-71
2023/03/10 06:40:12;;;;;;;0.80;0.25;;;9.10;99.90;;;;;;4993245;28;20065;-68
2023/03/10 06:42:40;;;;;;;1.48;0.28;;;9.00;99.90;;;;;;5010632;28;20030;-70
2023/03/10 06:45:07;;;;;;;1.95;0.40;;;8.90;99.90;;;;;;5010228;28;20088;-69
2023/03/10 06:47:32;;;;;;;2.75;0.40;;;8.80;99.90;;;;;;5024529;28;20029;-74
2023/03/10 06:49:59;;;;;;;1.05;0.30;;;8.80;99.90;;;;;;5023841;28;20072;-72
2023/03/10 06:52:25;;;;;;;3.33;0.40;;;8.80;99.90;;;;;;5010164;28;20046;-71
2023/03/10 06:54:51;;;;;;;0.95;0.20;;;8.70;99.90;;;;;;5011477;28;20057;-70
2023/03/10 06:57:17;;;;;;;1.67;0.30;;;8.70;99.90;;;;;;5009972;28;20518;-70
2023/03/10 06:59:42;;;;;;;1.30;0.30;;;8.60;99.90;;;;;;4990688;28;20475;-70
2023/03/10 07:02:11;;;;;;;2.90;0.30;;;8.60;99.90;;;;;;5009646;28;20065;-72
2023/03/10 07:04:38;;;;;;;2.03;0.30;;;8.60;99.90;;;;;;5012513;28;20121;-71
2023/03/10 07:07:04;;;;;;;3.00;0.50;;;8.60;99.90;;;;;;5009474;28;20034;-70
2023/03/10 07:09:29;;;;;;;2.00;0.45;;;8.60;99.90;;;;;;4993477;28;20359;-70
2023/03/10 07:11:55;;;;;;;2.65;0.40;;;8.70;99.90;;;;;;5015324;28;20049;-69
2023/03/10 07:14:21;;;;;;;3.15;0.45;;;8.80;99.90;;;;;;5018735;28;20045;-70
2023/03/10 07:16:46;;;;;;;0.80;0.20;;;8.80;99.90;;;;;;5010838;28;20385;-71
2023/03/10 07:19:12;;;;;;;2.63;0.57;;;9.00;99.90;;;;;;5009284;28;20030;-71
2023/03/10 07:21:38;;;;;;;1.92;0.40;;;8.90;99.90;;;;;;5009577;28;20042;-71
2023/03/10 07:24:04;;;;;;;2.80;0.50;;;9.00;99.90;;;;;;4990137;28;20814;-71
2023/03/10 07:26:29;;;;;;;1.88;0.57;;;9.10;99.90;;;;;;5010436;28;20025;-72
2023/03/10 07:28:55;;;;;;;1.35;0.35;;;9.10;99.90;;;;;;5010236;28;20030;-68
2023/03/10 07:31:21;;;;;;;0.93;0.38;;;9.10;99.90;;;;;;5010559;28;20069;-71
2023/03/10 07:33:48;;;;;;;0.88;0.40;;;9.10;99.90;;;;;;5010359;28;20084;-72
2023/03/10 07:36:16;;;;;;;1.33;0.30;;;9.40;99.90;;;;;;5009669;28;20026;-71
2023/03/10 07:38:42;;;;;;;1.60;0.40;;;9.50;99.90;;;;;;5010277;28;20509;-70
2023/03/10 07:41:10;;;;;;;1.27;0.30;;;9.70;99.90;;;;;;5017030;28;20029;-73
2023/03/10 07:43:36;;;;;;;1.23;0.30;;;9.70;99.90;;;;;;4977475;28;20056;-69
2023/03/10 07:46:09;;;;;;;1.05;0.35;;;9.70;99.90;;;;;;4990041;28;20748;-72
2023/03/10 07:48:35;;;;;;;2.13;0.32;;;9.80;99.90;;;;;;4991781;28;20062;-69
2023/03/10 07:51:01;;;;;;;0.90;0.35;;;9.80;99.90;;;;;;5009788;28;20034;-71
2023/03/10 07:53:27;;;;;;;2.95;0.50;;;9.90;99.90;;;;;;4992782;28;20471;-68
2023/03/10 07:55:53;;;;;;;1.63;0.38;;;9.90;99.90;;;;;;5010274;28;20498;-73
2023/03/10 07:58:19;;;;;;;0.43;0.13;;;10.10;99.90;;;;;;5007337;28;20282;-69
2023/03/10 08:00:45;;;;;;;2.95;0.43;;;10.10;99.90;;;;;;5008864;28;20526;-70
2023/03/10 08:03:11;;;;;;;1.67;0.30;;;10.00;99.90;;;;;;4990881;28;20057;-70
2023/03/10 08:05:40;;;;;;;1.30;0.20;;;10.00;99.90;;;;;;5009262;28;20048;-74
2023/03/10 08:08:06;;;;;;;0.85;0.20;;;10.00;99.90;;;;;;5009278;28;20064;-70
2023/03/10 08:10:32;;;;;;;0.70;0.30;;;10.00;99.90;;;;;;5009325;28;20034;-70
2023/03/10 08:12:58;;;;;;;2.13;0.38;;;9.90;99.90;;;;;;5009097;28;20486;-68
2023/03/10 08:15:25;;;;;;;0.50;0.20;;;9.90;99.90;;;;;;5009311;28;20109;-70
2023/03/10 08:17:51;;;;;;;0.80;0.25;;;9.90;99.90;;;;;;5009403;28;20034;-69
2023/03/10 08:20:16;;;;;;;1.75;0.40;;;9.90;99.90;;;;;;5007549;28;20436;-69
2023/03/10 08:22:42;;;;;;;0.43;0.30;;;10.00;99.90;;;;;;5010242;28;20113;-71
2023/03/10 08:25:08;;;;;;;3.05;0.40;;;9.90;99.90;;;;;;5008969;28;20461;-73
2023/03/10 08:27:34;;;;;;;1.15;0.40;;;9.90;99.90;;;;;;5008956;28;20038;-70
2023/03/10 08:30:00;;;;;;;2.75;0.40;;;10.00;99.90;;;;;;5011182;28;20787;-67
2023/03/10 08:32:25;;;;;;;1.20;0.35;;;10.00;99.90;;;;;;5024785;28;20037;-71
2023/03/10 08:34:51;;;;;;;1.38;0.47;;;10.00;99.90;;;;;;5028862;28;20609;-67
2023/03/10 08:37:16;;;;;;;2.17;0.30;;;10.00;99.90;;;;;;5007664;28;20034;-72
2023/03/10 08:39:42;;;;;;;1.25;0.50;;;10.10;99.90;;;;;;5008021;28;20026;-69
2023/03/10 08:42:12;;;;;;;1.10;0.40;;;10.30;99.90;;;;;;5008736;28;20120;-69
2023/03/10 08:44:38;;;;;;;3.47;0.40;;;10.30;99.90;;;;;;5009579;28;20026;-70
2023/03/10 08:47:04;;;;;;;2.20;0.30;;;10.40;99.90;;;;;;5008705;28;20040;-69
2023/03/10 08:49:30;;;;;;;2.78;0.47;;;10.50;99.90;;;;;;5008183;28;20778;-72
2023/03/10 08:51:56;;;;;;;1.25;0.43;;;10.40;99.90;;;;;;5007175;28;20066;-72
2023/03/10 08:54:22;;;;;;;1.17;0.38;;;10.50;99.90;;;;;;5008047;28;20168;-71
2023/03/10 08:56:48;;;;;;;4.13;0.45;;;10.50;99.90;;;;;;5008559;28;20026;-72
2023/03/10 08:59:14;;;;;;;1.77;0.50;;;10.50;99.90;;;;;;5018536;28;20025;-69
2023/03/10 09:01:40;;;;;;;1.42;0.43;;;10.30;99.90;;;;;;5015011;28;20402;-70
2023/03/10 09:04:07;;;;;;;1.63;0.40;;;10.40;99.90;;;;;;5026217;28;20037;-70
2023/03/10 09:06:34;;;;;;;4.00;0.43;;;10.20;99.90;;;;;;5008523;28;20560;-71
2023/03/10 09:09:00;;;;;;;4.03;0.55;;;10.30;99.90;;;;;;5008821;28;20386;-68
2023/03/10 09:11:30;;;;;;;3.53;0.60;;;10.20;99.90;;;;;;5008273;28;20037;-71
2023/03/10 09:13:57;;;;;;;0.60;0.20;;;10.20;99.90;;;;;;5009099;28;20038;-70
2023/03/10 09:16:23;;;;;;;3.50;0.20;;;10.00;99.90;;;;;;5008006;28;20104;-72
2023/03/10 09:18:48;;;;;;;1.52;0.10;;;9.30;99.90;;;;;;4990506;28;20022;-74
2023/03/10 09:21:16;;;;;;;0.60;0.10;;;9.00;99.90;;;;;;5006967;28;20140;-72
2023/03/10 09:23:44;;;;;;;1.10;0.20;;;8.70;99.90;;;;;;5008671;28;20076;-72
2023/03/10 09:26:13;;;;;;;1.27;0.10;;;8.40;99.90;;;;;;5008354;28;20029;-73
2023/03/10 09:28:39;;;;;;;0.20;0.10;;;8.40;99.90;;;;;;5010120;28;20824;-70
2023/03/10 09:31:06;;;;;;;0.55;0.20;;;8.30;99.90;;;;;;5008321;28;20112;-66
2023/03/10 09:33:32;;;;;;;0.82;0.17;;;8.20;99.90;;;;;;5008738;28;20034;-70
2023/03/10 09:35:58;;;;;;;1.27;0.20;;;8.20;99.90;;;;;;5008269;28;20037;-71
2023/03/10 09:38:24;;;;;;;1.15;0.30;;;8.30;99.90;;;;;;5007755;28;20036;-71
2023/03/10 09:41:20;;;;;;;1.52;0.43;;;8.30;99.90;;;;;;5008792;28;20054;-71
2023/03/10 09:44:01;;;;;;;1.20;0.17;;;8.20;99.90;;;;;;5007541;28;20505;-71
2023/03/10 09:46:47;;;;;;;2.35;0.40;;;8.10;99.90;;;;;;5007848;28;20041;-69
2023/03/10 09:49:29;;;;;;;1.63;0.40;;;8.20;99.90;;;;;;5006665;28;20085;-72
2023/03/10 09:51:55;;;;;;;0.50;0.20;;;8.20;99.90;;;;;;5013148;28;20140;-72
2023/03/10 09:54:30;;;;;;;1.90;0.35;;;8.50;99.90;;;;;;5027707;28;20533;-71
2023/03/10 09:56:59;;;;;;;1.48;0.30;;;9.00;99.90;;;;;;5015347;28;20052;-70
2023/03/10 09:59:35;;;;;;;2.60;0.40;;;9.20;99.90;;;;;;5007983;28;20033;-69
2023/03/10 10:02:14;;;;;;;1.15;0.45;;;9.30;99.90;;;;;;5011368;28;20042;-73
2023/03/10 10:04:41;;;;;;;0.77;0.40;;;9.30;99.90;;;;;;5007167;28;20034;-71
2023/03/10 10:07:15;;;;;;;2.22;0.47;;;9.60;99.90;;;;;;5007074;28;20398;-68
2023/03/10 10:10:18;;;;;;;1.95;0.30;;;9.90;99.90;;;;;;5008776;28;20030;-72
2023/03/10 10:12:45;;;;;;;1.67;0.45;;;10.00;99.90;;;;;;5007900;28;20038;-74
2023/03/10 10:15:21;;;;;;;0.77;0.30;;;10.20;99.90;;;;;;5007859;28;20048;-69
2023/03/10 10:18:08;;;;;;;2.72;0.40;;;10.40;99.90;;;;;;4990492;28;20034;-73
2023/03/10 10:20:38;;;;;;;2.50;0.45;;;10.60;99.90;;;;;;5007462;28;20065;-72
2023/03/10 10:23:28;;;;;;;1.93;0.40;;;10.70;99.90;;;;;;5021678;28;20033;-72
2023/03/10 10:25:54;;;;;;;0.95;0.40;;;10.60;99.90;;;;;;5009297;28;20084;-72
2023/03/10 10:28:31;;;;;;;2.75;0.50;;;10.50;99.90;;;;;;5005929;28;20034;-71
2023/03/10 10:31:16;;;;;;;4.25;0.47;;;10.50;99.90;;;;;;5008552;28;20058;-72
2023/03/10 10:34:20;;;;;;;1.95;0.30;;;10.50;99.90;;;;;;5010077;28;20044;-72
2023/03/10 10:36:53;;;;;;;0.85;0.35;;;10.50;99.90;;;;;;4979805;28;20041;-73
2023/03/10 10:39:40;;;;;;;1.45;0.40;;;10.50;99.90;;;;;;5011081;28;20125;-72
2023/03/10 10:42:20;;;;;;;3.72;0.22;;;10.40;99.90;;;;;;5011711;28;20042;-68
2023/03/10 10:44:46;;;;;;;1.73;0.30;;;10.40;99.90;;;;;;5011837;28;20058;-73
2023/03/10 10:47:29;;;;;;;1.13;0.28;;;10.40;99.90;;;;;;5009465;28;20497;-75
2023/03/10 10:50:07;;;;;;;1.42;0.20;;;10.20;99.90;;;;;;5009512;28;20494;-72
2023/03/10 10:52:33;;;;;;;1.65;0.55;;;9.80;99.90;;;;;;5009463;28;20600;-72
2023/03/10 10:55:01;;;;;;;1.50;0.30;;;9.50;99.90;;;;;;5010885;28;20037;-70
2023/03/10 10:57:35;;;;;;;2.28;0.20;;;9.70;99.90;;;;;;5009794;28;20041;-72
2023/03/10 11:00:35;;;;;;;2.88;0.50;;;9.50;99.90;;;;;;5011603;28;20497;-72
2023/03/10 11:03:16;;;;;;;1.02;0.28;;;9.60;99.90;;;;;;4967098;28;20092;-73
2023/03/10 11:05:42;;;;;;;2.30;0.20;;;9.70;99.90;;;;;;5011475;28;20025;-71
2023/03/10 11:08:26;;;;;;;2.40;0.30;;;9.70;99.90;;;;;;5010869;28;20379;-68
2023/03/10 11:11:00;;;;;;;1.27;0.30;;;9.70;99.90;;;;;;5010640;28;20036;-71
2023/03/10 11:13:39;;;;;;;1.25;0.47;;;9.90;99.90;;;;;;5012545;28;20042;-72
2023/03/10 11:16:13;;;;;;;1.33;0.25;;;9.90;99.90;;;;;;5014140;28;20084;-77
2023/03/10 11:18:47;;;;;;;1.83;0.40;;;9.90;99.90;;;;;;5008943;28;20037;-70
2023/03/10 11:21:26;;;;;;;0.98;0.30;;;9.90;99.90;;;;;;5007405;28;20034;-70
2023/03/10 11:24:25;;;;;;;4.13;0.40;;;10.10;99.90;;;;;;4991055;28;20060;-69
2023/03/10 11:26:58;;;;;;;4.95;0.77;;;10.10;99.90;;;;;;4994451;28;20037;-70
2023/03/10 11:29:23;;;;;;;2.88;0.50;;;9.80;99.90;;;;;;5003564;28;20019;-70
2023/03/10 11:32:05;;;;;;;4.80;0.68;;;9.60;99.90;;;;;;4999517;28;20050;-70
2023/03/10 11:34:36;;;;;;;3.30;0.60;;;9.40;99.90;;;;;;4997098;28;20017;-71
2023/03/10 11:37:12;;;;;;;6.03;0.88;;;9.40;99.90;;;;;;5009873;28;20030;-70
2023/03/10 11:40:06;;;;;;;3.80;0.50;;;9.30;99.90;;;;;;5011251;28;20022;-70
2023/03/10 11:42:55;;;;;;;1.65;0.30;;;9.50;99.90;;;;;;5009829;28;20197;-70
2023/03/10 11:45:52;;;;;;;2.28;0.47;;;9.70;99.90;;;;;;5007787;28;20044;-70
2023/03/10 11:48:43;;;;;;;1.42;0.40;;;9.70;99.90;;;;;;5010970;28;20367;-71
2023/03/10 11:51:42;;;;;;;5.45;0.28;;;9.80;99.90;;;;;;5002616;28;20049;-68
2023/03/10 11:54:15;;;;;;;1.80;0.60;;;9.90;99.90;;;;;;4982279;28;20136;-70
2023/03/10 11:56:42;;;;;;;0.60;0.30;;;9.90;99.90;;;;;;5007944;28;20029;-69
2023/03/10 11:59:22;;;;;;;0.63;0.25;;;10.00;99.90;;;;;;5014876;28;20026;-71
2023/03/10 12:01:53;;;;;;;1.35;0.35;;;10.20;99.90;;;;;;4971564;28;20053;-66
2023/03/10 12:04:22;;;;;;;0.70;0.20;;;10.20;99.90;;;;;;4993952;28;20601;-70
2023/03/10 12:07:21;;;;;;;1.17;0.20;;;10.30;99.90;;;;;;5008600;28;20045;-70
2023/03/10 12:09:54;;;;;;;0.28;0.10;;;10.20;99.90;;;;;;5010233;28;20480;-70
2023/03/10 12:12:35;;;;;;;5.57;0.60;;;10.10;99.90;;;;;;4996652;28;20136;-70
2023/03/10 12:15:09;;;;;;;2.03;0.30;;;10.00;99.90;;;;;;5010570;28;20037;-69
2023/03/10 12:17:36;;;;;;;0.20;0.10;;;9.90;99.90;;;;;;5010590;28;20025;-70
2023/03/10 12:20:13;;;;;;;0.43;0.20;;;9.80;99.90;;;;;;5009766;28;20062;-69
2023/03/10 12:22:45;;;;;;;1.45;0.20;;;9.70;99.90;;;;;;4996294;28;20485;-70
2023/03/10 12:25:32;;;;;;;3.38;0.32;;;9.70;99.90;;;;;;5004203;28;20030;-69
2023/03/10 12:28:15;;;;;;;1.33;0.20;;;9.50;99.90;;;;;;4993444;28;20049;-70
2023/03/10 12:31:09;;;;;;;1.83;0.30;;;9.60;99.90;;;;;;5009664;28;20125;-69
2023/03/10 12:33:41;;;;;;;1.85;0.30;;;9.50;99.90;;;;;;5006696;28;20042;-68
2023/03/10 12:36:36;;;;;;;4.93;0.65;;;9.60;99.90;;;;;;4988334;28;20023;-70
2023/03/10 12:39:27;;;;;;;3.15;0.38;;;9.70;99.90;;;;;;4991561;28;20080;-70
2023/03/10 12:41:56;;;;;;;2.95;0.45;;;9.60;99.90;;;;;;5024721;28;20095;-69
2023/03/10 12:44:22;;;;;;;1.70;0.20;;;9.60;99.90;;;;;;5020867;28;20030;-69
2023/03/10 12:47:08;;;;;;;1.02;0.30;;;9.50;99.90;;;;;;5008269;28;20040;-71
2023/03/10 12:49:40;;;;;;;3.30;0.30;;;9.50;99.90;;;;;;4990928;28;20088;-70
2023/03/10 12:52:09;;;;;;;3.13;0.40;;;9.40;99.90;;;;;;5009541;28;20046;-70
2023/03/10 12:54:51;;;;;;;2.42;0.90;;;9.50;99.90;;;;;;5005283;28;20021;-69
2023/03/10 12:57:35;;;;;;;2.13;0.40;;;9.40;99.90;;;;;;5006512;28;20382;-70
2023/03/10 13:00:37;;;;;;;2.75;0.50;;;9.40;99.90;;;;;;4998047;28;20034;-70
2023/03/10 13:03:06;;;;;;;2.08;0.30;;;9.40;99.90;;;;;;4999030;28;20033;-71
2023/03/10 13:05:41;;;;;;;5.18;0.50;;;9.40;99.90;;;;;;5006447;28;20030;-69
2023/03/10 13:08:21;;;;;;;1.58;0.40;;;9.30;99.90;;;;;;5008052;28;20025;-70
2023/03/10 13:10:53;;;;;;;1.65;0.40;;;9.30;99.90;;;;;;5007066;28;20054;-70